Time;durP1;ratioP1;P1;durP2;ratioP2;P2;SDS_P1;SDS_P2;PMS_P1;PMS_P2;Temp;Humidity;BMP_temperature;BMP_pressure;BME280_temperature;BME280_humidity;BME280_pressure;Samples;Min_cycle;Max_cycle;Signal;HPM_P1;HPM_P2
2022/07/18 00:00:24;;;;;;;2.17;1.20;;;;;;;12.21;81.66;98791.38;1785516;79;20900;-61
2022/07/18 00:02:51;;;;;;;2.55;1.30;;;;;;;12.19;81.71;98791.67;1785695;79;20908;-61
2022/07/18 00:05:17;;;;;;;1.20;0.80;;;;;;;12.17;81.99;98799.21;1788837;79;21121;-61
2022/07/18 00:07:46;;;;;;;2.58;1.20;;;;;;;12.16;82.20;98790.88;1771672;79;20833;-60
2022/07/18 00:10:13;;;;;;;2.00;1.12;;;;;;;12.15;82.29;98791.95;1780758;80;20937;-61
2022/07/18 00:12:41;;;;;;;3.65;1.40;;;;;;;12.12;82.45;98796.56;1772441;80;20924;-60
2022/07/18 00:15:09;;;;;;;2.50;1.10;;;;;;;12.11;82.68;98792.80;1779629;80;21521;-61
2022/07/18 00:17:37;;;;;;;1.82;1.10;;;;;;;12.07;82.82;98787.20;1780017;80;21111;-61
2022/07/18 00:20:08;;;;;;;2.27;1.10;;;;;;;12.06;83.00;98790.17;1784458;79;20920;-61
2022/07/18 00:22:34;;;;;;;1.37;0.80;;;;;;;12.04;83.27;98791.78;1789247;79;20864;-61
2022/07/18 00:25:02;;;;;;;2.52;1.32;;;;;;;12.02;83.37;98793.94;1781733;80;20861;-61
2022/07/18 00:27:30;;;;;;;1.80;1.00;;;;;;;12.01;83.53;98799.60;1786428;79;20935;-61
2022/07/18 00:29:58;;;;;;;2.52;1.40;;;;;;;11.98;83.72;98796.94;1782067;79;21112;-61
2022/07/18 00:32:24;;;;;;;5.83;0.95;;;;;;;11.98;83.93;98803.64;1784512;79;20912;-61
2022/07/18 00:34:51;;;;;;;1.30;0.82;;;;;;;11.96;84.08;98803.13;1784828;79;20915;-61
2022/07/18 00:37:17;;;;;;;2.22;1.10;;;;;;;11.95;84.14;98801.52;1780125;78;20939;-61
2022/07/18 00:39:44;;;;;;;2.30;0.90;;;;;;;11.94;84.32;98804.48;1779871;80;20971;-61
2022/07/18 00:42:10;;;;;;;4.92;1.20;;;;;;;11.93;84.61;98802.34;1780185;80;21204;-61
2022/07/18 00:44:38;;;;;;;3.05;1.10;;;;;;;11.90;84.69;98804.23;1780291;79;20970;-61
2022/07/18 00:47:06;;;;;;;2.55;0.90;;;;;;;11.87;84.86;98808.80;1782312;79;21361;-61
2022/07/18 00:49:33;;;;;;;1.98;1.07;;;;;;;11.88;84.91;98809.08;1779299;78;20911;-61
2022/07/18 00:52:00;;;;;;;2.72;0.90;;;;;;;11.86;84.98;98808.56;1780503;80;20971;-61
2022/07/18 00:54:27;;;;;;;2.77;1.20;;;;;;;11.85;85.09;98804.25;1780534;80;21153;-60
2022/07/18 00:56:53;;;;;;;1.75;1.12;;;;;;;11.84;85.28;98805.36;1777960;80;20840;-60
2022/07/18 00:59:20;;;;;;;2.08;0.90;;;;;;;11.83;85.24;98817.16;1784055;79;21007;-60
2022/07/18 01:01:47;;;;;;;1.17;0.90;;;;;;;11.82;85.31;98810.20;1782071;79;21116;-60
2022/07/18 01:04:20;;;;;;;2.65;1.10;;;;;;;11.81;85.38;98805.91;1785123;79;21516;-60
2022/07/18 01:06:47;;;;;;;1.55;1.07;;;;;;;11.82;85.44;98812.08;1775865;79;21115;-61
2022/07/18 01:09:16;;;;;;;3.10;1.10;;;;;;;11.81;85.44;98809.92;1784083;79;20979;-61
2022/07/18 01:11:45;;;;;;;1.20;1.00;;;;;;;11.79;85.50;98813.44;1788918;79;20982;-61
2022/07/18 01:14:11;;;;;;;1.57;1.10;;;;;;;11.76;85.51;98816.66;1780450;79;20897;-61
2022/07/18 01:16:38;;;;;;;1.57;0.90;;;;;;;11.73;85.51;98809.16;1783851;79;21390;-61
2022/07/18 01:19:05;;;;;;;2.08;0.90;;;;;;;11.70;85.78;98812.42;1782178;79;21673;-61
2022/07/18 01:21:32;;;;;;;1.55;1.12;;;;;;;11.68;85.89;98815.92;1781354;80;20853;-61
2022/07/18 01:23:58;;;;;;;1.82;1.20;;;;;;;11.68;86.07;98815.92;1787897;79;20916;-61
2022/07/18 01:26:25;;;;;;;5.90;1.00;;;;;;;11.67;86.13;98825.01;1784713;79;20960;-61
2022/07/18 01:28:51;;;;;;;3.17;1.00;;;;;;;11.65;86.14;98824.48;1776205;79;20848;-61
2022/07/18 01:31:18;;;;;;;2.62;1.05;;;;;;;11.64;86.20;98822.88;1781153;79;21108;-61
2022/07/18 01:33:44;;;;;;;3.25;1.00;;;;;;;11.61;86.46;98818.08;1781563;80;21108;-61
2022/07/18 01:36:11;;;;;;;1.82;1.20;;;;;;;11.59;86.51;98817.53;1785794;79;20992;-61
2022/07/18 01:38:38;;;;;;;1.98;1.00;;;;;;;11.55;86.55;98820.52;1782050;79;21497;-61
2022/07/18 01:41:05;;;;;;;2.85;1.07;;;;;;;11.51;86.58;98822.15;1777192;79;21574;-61
2022/07/18 01:43:31;;;;;;;4.90;1.30;;;;;;;11.43;86.75;98819.50;1783163;79;21105;-61
2022/07/18 01:45:58;;;;;;;3.05;1.00;;;;;;;11.37;86.91;98823.83;1783469;79;21522;-61
2022/07/18 01:48:24;;;;;;;1.27;1.05;;;;;;;11.30;87.02;98830.02;1782979;79;21502;-61
2022/07/18 01:50:51;;;;;;;3.98;0.95;;;;;;;11.22;87.21;98829.23;1777483;79;20880;-61
2022/07/18 01:53:18;;;;;;;4.08;1.02;;;;;;;11.16;87.43;98835.70;1784475;79;21375;-61
2022/07/18 01:55:45;;;;;;;2.98;1.10;;;;;;;11.09;87.63;98828.48;1782949;79;21122;-61
2022/07/18 01:58:11;;;;;;;2.62;1.00;;;;;;;11.07;87.88;98833.33;1785287;79;20879;-61
2022/07/18 02:00:38;;;;;;;2.55;1.27;;;;;;;11.06;88.08;98841.09;1785934;79;21490;-61
2022/07/18 02:03:04;;;;;;;3.05;1.47;;;;;;;11.04;88.03;98839.22;1783451;79;20931;-61
2022/07/18 02:05:31;;;;;;;2.98;1.22;;;;;;;10.96;88.05;98844.59;1781816;79;20893;-61
2022/07/18 02:07:58;;;;;;;2.22;1.10;;;;;;;10.87;88.39;98842.20;1781090;79;21852;-61
2022/07/18 02:10:24;;;;;;;2.30;1.20;;;;;;;10.82;88.47;98841.69;1784657;79;20869;-62
2022/07/18 02:12:51;;;;;;;3.83;1.10;;;;;;;10.76;88.77;98850.79;1783818;79;20952;-61
2022/07/18 02:15:18;;;;;;;2.12;1.30;;;;;;;10.70;89.13;98843.84;1783949;79;20927;-61
2022/07/18 02:17:44;;;;;;;2.35;1.00;;;;;;;10.67;89.38;98853.75;1780191;79;21442;-61
2022/07/18 02:20:13;;;;;;;1.98;1.12;;;;;;;10.66;89.44;98844.66;1782248;79;21098;-61
2022/07/18 02:22:39;;;;;;;2.65;1.15;;;;;;;10.61;89.61;98847.34;1778480;80;21470;-61
2022/07/18 02:25:09;;;;;;;1.70;1.10;;;;;;;10.58;89.75;98847.86;1784013;79;20964;-61
2022/07/18 02:27:37;;;;;;;3.02;1.30;;;;;;;10.53;89.84;98850.02;1779344;79;20919;-61
2022/07/18 02:30:07;;;;;;;2.65;1.25;;;;;;;10.51;90.02;98844.66;1784217;79;21010;-61
2022/07/18 02:32:37;;;;;;;4.42;1.35;;;;;;;10.49;90.30;98844.94;1781823;79;21099;-61
2022/07/18 02:35:06;;;;;;;3.80;1.52;;;;;;;10.51;90.27;98851.35;1784530;79;20872;-61
2022/07/18 02:37:32;;;;;;;2.85;1.32;;;;;;;10.45;90.25;98847.08;1782866;79;20912;-61
2022/07/18 02:39:59;;;;;;;2.98;1.32;;;;;;;10.41;90.50;98848.14;1781330;80;21017;-61
2022/07/18 02:42:26;;;;;;;4.05;1.30;;;;;;;10.40;90.82;98850.56;1785250;79;20879;-60
2022/07/18 02:44:53;;;;;;;2.77;1.42;;;;;;;10.39;90.92;98851.63;1779609;80;22831;-60
2022/07/18 02:47:19;;;;;;;2.72;1.40;;;;;;;10.40;91.17;98853.25;1782081;79;21408;-59
2022/07/18 02:49:46;;;;;;;2.27;1.30;;;;;;;10.42;91.08;98851.63;1787373;79;21145;-59
2022/07/18 02:52:12;;;;;;;1.45;1.07;;;;;;;10.38;91.16;98852.72;1785162;79;21030;-59
2022/07/18 02:54:39;;;;;;;4.17;1.35;;;;;;;10.39;91.61;98842.25;1781764;80;21031;-59
2022/07/18 02:57:05;;;;;;;4.53;1.45;;;;;;;10.46;91.55;98849.48;1775848;79;21216;-59
2022/07/18 02:59:32;;;;;;;4.25;1.10;;;;;;;10.50;91.39;98842.54;1783864;79;21031;-59
2022/07/18 03:02:00;;;;;;;1.98;0.90;;;;;;;10.52;91.33;98840.92;1780408;80;20950;-60
2022/07/18 03:04:27;;;;;;;1.47;1.12;;;;;;;10.52;91.36;98843.59;1781105;79;21039;-60
2022/07/18 03:06:54;;;;;;;1.52;1.10;;;;;;;10.53;91.43;98840.64;1784617;79;20984;-60
2022/07/18 03:09:20;;;;;;;1.60;1.10;;;;;;;10.53;91.04;98837.96;1787208;79;22051;-60
2022/07/18 03:11:47;;;;;;;3.10;1.30;;;;;;;10.52;91.16;98835.56;1779947;79;20952;-60
2022/07/18 03:14:13;;;;;;;2.35;1.32;;;;;;;10.58;91.70;98839.30;1779054;79;21384;-61
2022/07/18 03:16:41;;;;;;;4.62;1.20;;;;;;;10.65;91.79;98842.51;1782239;80;20924;-60
2022/07/18 03:19:07;;;;;;;1.60;1.10;;;;;;;10.74;91.68;98835.52;1784293;79;20984;-60
2022/07/18 03:21:35;;;;;;;1.40;1.00;;;;;;;10.86;91.91;98842.74;1782505;79;21998;-60
2022/07/18 03:24:02;;;;;;;5.90;1.30;;;;;;;11.07;91.82;98850.75;1779670;80;20959;-60
2022/07/18 03:26:28;;;;;;;3.05;1.52;;;;;;;11.25;91.39;98852.83;1783544;79;20979;-60
2022/07/18 03:28:55;;;;;;;2.25;1.10;;;;;;;11.41;90.88;98846.33;1790010;79;21042;-60
2022/07/18 03:31:21;;;;;;;2.75;1.20;;;;;;;11.57;90.23;98850.55;1779072;80;20927;-61
2022/07/18 03:33:48;;;;;;;3.10;1.20;;;;;;;11.69;89.37;98851.06;1780371;80;21218;-60
2022/07/18 03:36:14;;;;;;;1.70;1.37;;;;;;;11.79;88.88;98859.06;1789657;79;20829;-60
2022/07/18 03:38:42;;;;;;;3.25;1.50;;;;;;;11.88;88.37;98853.37;1783126;79;20916;-60
2022/07/18 03:41:11;;;;;;;2.10;1.20;;;;;;;11.95;87.63;98858.42;1782853;79;21578;-61
2022/07/18 03:43:38;;;;;;;2.22;1.20;;;;;;;12.02;87.17;98850.33;1782896;79;20931;-60
2022/07/18 03:46:06;;;;;;;3.08;1.20;;;;;;;12.09;87.00;98854.84;1780479;80;22003;-60
2022/07/18 03:48:34;;;;;;;1.80;1.20;;;;;;;12.15;85.99;98859.09;1784534;79;20984;-61
2022/07/18 03:51:01;;;;;;;4.42;1.62;;;;;;;12.21;85.87;98853.15;1783590;79;20923;-60
2022/07/18 03:53:27;;;;;;;2.95;1.40;;;;;;;12.25;85.49;98856.34;1780083;79;21079;-60
2022/07/18 03:55:54;;;;;;;1.40;1.00;;;;;;;12.29;85.11;98850.66;1785260;79;20907;-61
2022/07/18 03:58:20;;;;;;;4.55;1.32;;;;;;;12.36;84.69;98852.48;1783381;79;21220;-60
2022/07/18 04:00:47;;;;;;;2.40;1.07;;;;;;;12.45;84.32;98856.73;1778529;79;20927;-60
2022/07/18 04:03:14;;;;;;;3.10;1.07;;;;;;;12.51;84.00;98856.94;1785995;79;21007;-61
2022/07/18 04:05:41;;;;;;;1.70;1.20;;;;;;;12.56;83.46;98855.56;1770374;79;20927;-60
2022/07/18 04:08:07;;;;;;;1.55;1.10;;;;;;;12.63;83.20;98856.56;1780007;79;21070;-60
2022/07/18 04:10:34;;;;;;;2.47;1.17;;;;;;;12.66;83.19;98860.05;1784619;79;21209;-61
2022/07/18 04:13:01;;;;;;;2.65;1.10;;;;;;;12.70;82.92;98854.35;1781410;78;20900;-60
2022/07/18 04:15:27;;;;;;;1.52;1.10;;;;;;;12.75;83.12;98857.00;1784493;79;21448;-61
2022/07/18 04:17:55;;;;;;;4.80;1.10;;;;;;;12.78;82.49;98856.44;1780514;79;20957;-61
2022/07/18 04:20:21;;;;;;;1.77;1.10;;;;;;;12.82;82.47;98850.75;1780820;80;21365;-60
2022/07/18 04:22:51;;;;;;;1.52;1.10;;;;;;;12.86;82.18;98855.27;1783563;79;22041;-60
2022/07/18 04:25:19;;;;;;;3.50;1.30;;;;;;;12.93;82.18;98855.73;1780422;79;20955;-60
2022/07/18 04:27:46;;;;;;;1.67;1.10;;;;;;;13.00;82.07;98859.46;1785587;79;20865;-60
2022/07/18 04:30:17;;;;;;;3.30;1.05;;;;;;;13.04;81.72;98855.11;1788553;79;21392;-60
2022/07/18 04:32:43;;;;;;;1.92;1.00;;;;;;;13.08;81.06;98859.39;1784770;78;21047;-62
2022/07/18 04:35:11;;;;;;;1.98;1.00;;;;;;;13.13;81.38;98856.65;1780460;80;21191;-61
2022/07/18 04:37:39;;;;;;;1.90;1.22;;;;;;;13.16;81.31;98851.52;1782803;78;20975;-61
2022/07/18 04:40:07;;;;;;;1.67;1.10;;;;;;;13.21;81.00;98847.97;1782339;79;20881;-61
2022/07/18 04:42:34;;;;;;;1.62;1.10;;;;;;;13.25;80.77;98857.86;1782575;79;20919;-61
2022/07/18 04:45:00;;;;;;;1.52;0.72;;;;;;;13.31;80.64;98855.89;1780478;80;20899;-61
2022/07/18 04:47:28;;;;;;;0.80;0.80;;;;;;;13.35;80.34;98855.06;1783608;79;21225;-60
2022/07/18 04:49:55;;;;;;;2.80;1.57;;;;;;;13.39;80.04;98857.43;1791418;79;20853;-61
2022/07/18 04:52:22;;;;;;;3.05;0.93;;;;;;;13.45;80.14;98856.27;1783785;79;21391;-60
2022/07/18 04:54:50;;;;;;;2.05;0.90;;;;;;;13.49;79.50;98861.36;1782648;79;21015;-61
2022/07/18 04:57:18;;;;;;;1.00;0.90;;;;;;;13.55;79.50;98865.57;1783186;79;20999;-61
2022/07/18 04:59:45;;;;;;;5.10;1.40;;;;;;;13.62;79.46;98864.67;1780829;79;22862;-60
2022/07/18 05:02:12;;;;;;;1.60;0.90;;;;;;;13.71;79.80;98864.28;1780832;79;21526;-60
2022/07/18 05:04:38;;;;;;;7.30;1.00;;;;;;;13.81;78.73;98866.58;1773648;79;20864;-61
2022/07/18 05:07:06;;;;;;;1.07;0.88;;;;;;;13.89;79.07;98868.64;1778371;80;20931;-61
2022/07/18 05:09:33;;;;;;;2.35;0.80;;;;;;;13.97;79.32;98867.43;1785568;79;20950;-61
2022/07/18 05:12:01;;;;;;;3.02;0.90;;;;;;;14.07;78.91;98867.84;1780817;80;21885;-61
2022/07/18 05:14:27;;;;;;;1.22;0.98;;;;;;;14.16;78.68;98863.39;1779858;80;20840;-61
2022/07/18 05:16:55;;;;;;;2.35;0.90;;;;;;;14.22;78.34;98863.58;1782378;79;20844;-61
2022/07/18 05:19:22;;;;;;;3.90;1.12;;;;;;;14.31;78.16;98863.20;1787263;79;20876;-61
2022/07/18 05:21:49;;;;;;;1.45;0.88;;;;;;;14.41;78.21;98864.40;1789380;79;20999;-61
2022/07/18 05:24:15;;;;;;;1.25;1.00;;;;;;;14.49;77.78;98866.41;1780906;80;21236;-61
2022/07/18 05:26:43;;;;;;;1.75;1.10;;;;;;;14.58;77.37;98871.38;1782382;79;20876;-61
2022/07/18 05:29:12;;;;;;;4.50;1.37;;;;;;;14.68;76.83;98872.56;1784754;79;20941;-61
2022/07/18 05:31:41;;;;;;;2.85;1.00;;;;;;;14.75;76.35;98871.64;1781422;79;20919;-61
2022/07/18 05:34:08;;;;;;;3.12;1.00;;;;;;;14.82;74.85;98869.35;1784206;78;21521;-61
2022/07/18 05:36:35;;;;;;;2.35;0.98;;;;;;;14.87;75.28;98873.31;1777333;80;21106;-60
2022/07/18 05:39:02;;;;;;;1.90;1.05;;;;;;;14.94;75.17;98872.37;1755987;80;21034;-61
2022/07/18 05:41:29;;;;;;;1.92;1.12;;;;;;;15.06;75.14;98874.05;1769963;80;20896;-61
2022/07/18 05:43:55;;;;;;;5.25;1.10;;;;;;;15.17;74.69;98874.65;1785165;77;20891;-61
2022/07/18 05:46:22;;;;;;;1.80;1.00;;;;;;;15.27;74.74;98873.11;1831738;77;20845;-61
2022/07/18 05:48:48;;;;;;;3.90;1.07;;;;;;;15.43;74.38;98868.20;1773052;78;21102;-62
2022/07/18 05:51:15;;;;;;;2.85;1.00;;;;;;;15.56;73.00;98865.56;1773726;78;21030;-62
2022/07/18 05:53:42;;;;;;;4.17;0.85;;;;;;;15.67;72.19;98865.59;1759932;78;20957;-61
2022/07/18 05:56:10;;;;;;;1.25;0.80;;;;;;;15.80;71.66;98861.28;1752358;80;20971;-60
2022/07/18 05:58:36;;;;;;;0.62;0.57;;;;;;;15.99;72.32;98863.84;1758367;79;21126;-61
2022/07/18 06:01:03;;;;;;;2.37;0.70;;;;;;;16.20;70.59;98864.41;1773647;78;22091;-61
2022/07/18 06:03:30;;;;;;;0.95;0.72;;;;;;;16.36;69.40;98854.05;1777909;77;20977;-60
2022/07/18 06:06:00;;;;;;;2.25;0.75;;;;;;;16.52;69.30;98855.86;1766048;77;21531;-61
2022/07/18 06:08:28;;;;;;;2.08;1.00;;;;;;;16.65;67.96;98859.06;1767988;77;21102;-61
2022/07/18 06:10:54;;;;;;;2.30;0.95;;;;;;;16.68;67.72;98862.48;1766917;77;21069;-61
2022/07/18 06:13:21;;;;;;;1.80;0.90;;;;;;;16.69;68.04;98857.33;1752296;79;21848;-61
2022/07/18 06:15:48;;;;;;;1.35;0.70;;;;;;;16.75;68.73;98856.08;1768495;80;21027;-62
2022/07/18 06:18:14;;;;;;;2.37;0.90;;;;;;;16.87;67.89;98857.66;1771796;80;20877;-60
2022/07/18 06:20:40;;;;;;;4.03;0.90;;;;;;;17.00;66.47;98864.91;1795703;78;21554;-60
2022/07/18 06:23:07;;;;;;;1.15;0.90;;;;;;;17.09;65.50;98861.69;1779231;77;20872;-60
2022/07/18 06:25:34;;;;;;;0.62;0.62;;;;;;;17.15;64.54;98863.14;1784600;78;21121;-60
2022/07/18 06:28:01;;;;;;;1.70;0.60;;;;;;;17.17;64.15;98851.44;1766879;80;21023;-61
2022/07/18 06:30:33;;;;;;;1.17;0.70;;;;;;;17.18;61.45;98851.70;1752395;78;21491;-61
2022/07/18 06:33:03;;;;;;;1.90;0.60;;;;;;;17.16;61.37;98847.70;1770786;78;21130;-59
2022/07/18 06:35:28;;;;;;;0.68;0.40;;;;;;;17.18;62.72;98847.64;1770277;79;21067;-60
2022/07/18 06:37:58;;;;;;;1.30;0.70;;;;;;;17.24;62.05;98855.08;1760026;78;39899;-60
2022/07/18 06:40:26;;;;;;;1.80;0.60;;;;;;;17.19;61.10;98849.80;1757179;77;21360;-58
2022/07/18 06:42:52;;;;;;;0.50;0.50;;;;;;;17.13;61.75;98849.13;1765402;78;21019;-58
2022/07/18 06:45:20;;;;;;;1.00;0.60;;;;;;;17.04;60.71;98853.70;1764810;78;21089;-60
2022/07/18 06:47:46;;;;;;;1.47;0.75;;;;;;;16.94;60.06;98849.91;1772476;80;21061;-60
2022/07/18 06:50:13;;;;;;;1.77;0.70;;;;;;;16.85;60.67;98850.42;1758146;80;21118;-60
2022/07/18 06:52:43;;;;;;;0.80;0.60;;;;;;;16.84;60.68;98847.48;1777610;78;21454;-60
2022/07/18 06:55:11;;;;;;;1.00;0.57;;;;;;;16.90;60.05;98845.69;1787011;78;21108;-60
2022/07/18 06:57:38;;;;;;;1.12;0.57;;;;;;;16.92;59.45;98841.30;1784305;77;21279;-60
2022/07/18 07:00:08;;;;;;;1.45;0.60;;;;;;;16.91;59.13;98840.50;1765650;78;21665;-59
2022/07/18 07:02:45;;;;;;;0.62;0.57;;;;;;;16.87;59.14;98847.65;1774872;78;21117;-59
2022/07/18 07:05:11;;;;;;;0.70;0.50;;;;;;;16.86;59.66;98847.97;1778910;77;21094;-60
2022/07/18 07:07:38;;;;;;;0.75;0.50;;;;;;;16.83;60.20;98843.97;1761206;78;21510;-61
2022/07/18 07:10:06;;;;;;;0.60;0.50;;;;;;;16.83;60.23;98850.73;1771575;78;21148;-61
2022/07/18 07:12:40;;;;;;;1.55;0.60;;;;;;;16.86;59.84;98847.39;1769453;77;21113;-61
2022/07/18 07:15:08;;;;;;;3.58;0.60;;;;;;;16.89;60.78;98845.42;1779128;78;21115;-61
2022/07/18 07:17:36;;;;;;;2.00;0.60;;;;;;;17.00;60.25;98841.91;1773363;79;20981;-60
2022/07/18 07:20:07;;;;;;;0.50;0.50;;;;;;;17.01;60.60;98851.61;1763793;78;20887;-60
2022/07/18 07:22:52;;;;;;;0.68;0.47;;;;;;;16.98;59.13;98852.25;1763969;80;21016;-60
2022/07/18 07:25:20;;;;;;;0.70;0.60;;;;;;;17.00;59.60;98852.16;1768714;78;21074;-61
2022/07/18 07:27:46;;;;;;;1.12;0.60;;;;;;;17.09;60.80;98850.31;1773269;79;21272;-60
2022/07/18 07:30:15;;;;;;;0.68;0.50;;;;;;;17.17;57.91;98850.09;1772817;78;20959;-60
2022/07/18 07:32:43;;;;;;;2.47;1.05;;;;;;;17.22;58.77;98845.89;1782340;77;20963;-61
2022/07/18 07:35:12;;;;;;;2.12;0.78;;;;;;;17.30;58.96;98844.34;1768438;78;21066;-61
2022/07/18 07:37:40;;;;;;;1.40;0.68;;;;;;;17.37;58.54;98841.97;1779974;78;21051;-60
2022/07/18 07:40:08;;;;;;;3.00;0.68;;;;;;;17.46;59.42;98842.80;1765343;77;21397;-60
2022/07/18 07:42:35;;;;;;;4.37;0.60;;;;;;;17.57;60.48;98842.21;1778077;78;21575;-60
2022/07/18 07:45:01;;;;;;;1.27;0.70;;;;;;;17.69;60.12;98842.95;1769992;78;21110;-60
2022/07/18 07:47:32;;;;;;;1.87;0.80;;;;;;;17.78;60.20;98839.15;1777850;78;21054;-60
2022/07/18 07:49:59;;;;;;;1.50;0.70;;;;;;;17.87;60.80;98842.44;1776581;78;21061;-60
2022/07/18 07:52:27;;;;;;;1.27;0.70;;;;;;;17.99;60.41;98835.84;1766964;78;21075;-60
2022/07/18 07:54:54;;;;;;;3.83;0.70;;;;;;;18.06;58.78;98840.23;1774262;77;21063;-60
2022/07/18 07:57:21;;;;;;;1.37;0.93;;;;;;;18.11;56.58;98838.72;1770483;78;21080;-60
2022/07/18 07:59:47;;;;;;;1.40;0.80;;;;;;;18.10;57.28;98842.53;1761954;78;21084;-60
2022/07/18 08:02:18;;;;;;;1.75;0.93;;;;;;;18.10;56.84;98839.83;1757927;78;21136;-61
2022/07/18 08:04:44;;;;;;;9.03;0.85;;;;;;;18.10;56.72;98836.56;1760300;78;21488;-60
2022/07/18 08:07:11;;;;;;;1.35;0.80;;;;;;;18.14;57.92;98832.09;1757560;78;21667;-61
2022/07/18 08:09:38;;;;;;;1.57;0.82;;;;;;;18.21;55.12;98835.67;1769325;78;21075;-60
2022/07/18 08:12:06;;;;;;;1.55;0.70;;;;;;;18.27;57.13;98839.83;1787127;77;21014;-60
2022/07/18 08:14:37;;;;;;;1.85;0.60;;;;;;;18.40;55.42;98840.21;1775274;77;21477;-60
2022/07/18 08:17:03;;;;;;;1.20;0.68;;;;;;;18.48;54.21;98838.09;1771565;77;21238;-60
2022/07/18 08:19:30;;;;;;;0.78;0.50;;;;;;;18.51;54.48;98836.10;1782745;77;21427;-61
2022/07/18 08:21:56;;;;;;;1.37;0.55;;;;;;;18.48;54.66;98840.80;1779445;77;21051;-61
2022/07/18 08:24:23;;;;;;;1.10;0.70;;;;;;;18.45;53.33;98837.34;1772568;77;21091;-60
2022/07/18 08:26:50;;;;;;;1.12;0.70;;;;;;;18.39;54.14;98838.63;1759959;78;21065;-61
2022/07/18 08:29:17;;;;;;;1.65;0.62;;;;;;;18.31;54.59;98838.06;1774951;78;21547;-61
2022/07/18 08:31:43;;;;;;;1.35;0.70;;;;;;;18.26;56.28;98844.45;1779774;77;21035;-61
2022/07/18 08:34:11;;;;;;;1.00;0.70;;;;;;;18.27;55.47;98843.91;1774852;77;21517;-61
2022/07/18 08:36:37;;;;;;;1.00;0.65;;;;;;;18.35;55.73;98838.47;1785122;78;20980;-61
2022/07/18 08:39:04;;;;;;;1.22;0.80;;;;;;;18.55;55.11;98844.38;1766144;78;21110;-62
2022/07/18 08:41:31;;;;;;;2.58;0.90;;;;;;;18.76;55.23;98839.31;1775571;78;21098;-61
2022/07/18 08:43:57;;;;;;;2.15;0.70;;;;;;;18.95;52.90;98839.75;1784449;77;21062;-61
2022/07/18 08:46:25;;;;;;;3.22;0.75;;;;;;;19.11;53.19;98846.23;1765029;79;21116;-61
2022/07/18 08:48:53;;;;;;;1.32;0.72;;;;;;;19.23;53.16;98841.48;1776871;77;21063;-60
2022/07/18 08:51:22;;;;;;;6.17;0.82;;;;;;;19.44;55.07;98833.41;1780077;77;21140;-60
2022/07/18 08:53:50;;;;;;;1.92;0.80;;;;;;;19.70;52.88;98825.91;1771445;77;21110;-61
2022/07/18 08:56:17;;;;;;;0.78;0.57;;;;;;;19.92;52.68;98829.70;1770907;78;21479;-60
2022/07/18 08:58:43;;;;;;;1.15;0.70;;;;;;;20.09;50.46;98832.27;1750151;78;21033;-62
2022/07/18 09:01:10;;;;;;;2.05;0.70;;;;;;;20.07;50.14;98833.16;1756301;80;21065;-60
2022/07/18 09:03:36;;;;;;;5.47;0.98;;;;;;;20.03;49.52;98831.44;1771069;78;21125;-61
2022/07/18 09:06:11;;;;;;;2.95;0.90;;;;;;;20.02;49.81;98827.14;1775006;78;21145;-62
2022/07/18 09:08:39;;;;;;;5.20;0.80;;;;;;;20.07;50.44;98834.52;1793143;77;21521;-61
2022/07/18 09:11:11;;;;;;;2.15;0.80;;;;;;;20.14;49.24;98826.63;1792883;78;21576;-62
2022/07/18 09:13:39;;;;;;;3.22;0.68;;;;;;;20.16;47.70;98823.59;1787028;77;21089;-62
2022/07/18 09:16:12;;;;;;;4.20;1.12;;;;;;;20.14;49.13;98829.34;1771388;77;21017;-64
2022/07/18 09:18:43;;;;;;;2.58;0.90;;;;;;;20.08;48.73;98836.69;1773193;78;21264;-62
2022/07/18 09:21:18;;;;;;;3.47;0.80;;;;;;;20.05;48.85;98834.06;1765197;78;20989;-63
2022/07/18 09:26:44;;;;;;;4.72;1.05;;;;;;;20.24;49.90;98831.70;1762017;77;21573;-61
2022/07/18 09:29:17;;;;;;;1.90;0.78;;;;;;;20.29;48.63;98830.14;1787822;78;21083;-62
2022/07/18 09:31:50;;;;;;;2.45;0.70;;;;;;;20.29;48.71;98830.14;1730590;80;21220;-62
2022/07/18 09:34:34;;;;;;;3.42;0.90;;;;;;;20.21;49.01;98833.69;1770478;78;20970;-62
2022/07/18 09:37:01;;;;;;;2.75;0.80;;;;;;;20.12;49.77;98834.88;1711176;81;27882;-61
2022/07/18 09:39:29;;;;;;;1.95;0.88;;;;;;;20.20;52.38;98840.27;1743385;81;21020;-61
2022/07/18 09:42:15;;;;;;;2.17;0.80;;;;;;;20.41;50.48;98834.28;1770687;80;21075;-63
2022/07/18 09:44:42;;;;;;;1.37;0.75;;;;;;;20.63;48.57;98825.52;1776280;79;21238;-61
2022/07/18 09:47:09;;;;;;;2.22;0.95;;;;;;;20.75;49.74;98824.19;1768539;79;21509;-62
2022/07/18 09:49:39;;;;;;;2.50;0.90;;;;;;;20.94;47.88;98833.41;1777234;77;21066;-61
2022/07/18 09:52:07;;;;;;;2.72;0.85;;;;;;;21.14;48.03;98824.96;1760057;79;21440;-60
2022/07/18 09:54:41;;;;;;;2.25;0.90;;;;;;;21.32;45.87;98823.60;1760922;77;21081;-63
2022/07/18 09:57:08;;;;;;;1.27;0.80;;;;;;;21.24;44.99;98832.70;1770730;77;21211;-60
2022/07/18 09:59:36;;;;;;;2.60;0.90;;;;;;;21.07;45.42;98822.00;1758910;78;20980;-61
2022/07/18 10:02:05;;;;;;;4.83;1.00;;;;;;;20.92;45.38;98824.78;1770018;80;21109;-59
2022/07/18 10:04:39;;;;;;;1.47;0.80;;;;;;;20.73;46.62;98820.42;1756734;77;20974;-59
2022/07/18 10:07:05;;;;;;;1.67;0.60;;;;;;;20.66;47.31;98824.26;1766879;80;21096;-60
2022/07/18 10:09:34;;;;;;;6.87;0.95;;;;;;;20.78;47.74;98831.10;1770602;77;21474;-62
2022/07/18 10:12:01;;;;;;;2.25;0.85;;;;;;;20.92;48.54;98817.97;1771498;77;20938;-61
2022/07/18 10:14:29;;;;;;;3.22;1.00;;;;;;;21.06;47.62;98807.59;1769514;77;21530;-60
2022/07/18 10:16:56;;;;;;;3.15;0.98;;;;;;;21.23;48.47;98811.22;1765712;77;21086;-60
2022/07/18 10:19:22;;;;;;;2.17;1.00;;;;;;;21.51;46.00;98812.93;1778727;78;21154;-63
2022/07/18 10:21:49;;;;;;;4.60;1.45;;;;;;;21.72;44.62;98815.52;1766312;77;21060;-63
2022/07/18 10:24:19;;;;;;;2.22;1.10;;;;;;;21.63;44.43;98810.76;1774893;78;20978;-62
2022/07/18 10:27:08;;;;;;;2.77;1.10;;;;;;;21.39;44.74;98810.20;1768001;77;21757;-61
2022/07/18 10:29:35;;;;;;;3.25;0.88;;;;;;;21.12;45.91;98809.53;1750724;79;20968;-62
2022/07/18 10:32:04;;;;;;;4.12;0.93;;;;;;;20.84;45.76;98811.27;1737610;79;21001;-61
2022/07/18 10:34:34;;;;;;;1.77;0.80;;;;;;;20.57;45.47;98816.75;1793216;77;21205;-61
2022/07/18 10:37:06;;;;;;;4.58;1.10;;;;;;;20.30;46.33;98814.03;1769753;77;21492;-61
2022/07/18 10:39:44;;;;;;;3.83;1.22;;;;;;;20.10;47.40;98818.11;1763529;77;21023;-61
2022/07/18 10:42:18;;;;;;;3.92;1.40;;;;;;;19.89;48.32;98820.83;1784735;77;21050;-63
2022/07/18 10:44:47;;;;;;;2.27;1.00;;;;;;;19.72;48.69;98819.58;1778372;78;21074;-61
2022/07/18 10:47:20;;;;;;;1.87;1.20;;;;;;;19.58;49.23;98816.31;1773611;77;21734;-63
2022/07/18 10:49:59;;;;;;;7.22;1.32;;;;;;;19.49;50.10;98823.72;1780866;77;21015;-62
2022/07/18 10:52:38;;;;;;;1.87;1.00;;;;;;;19.41;50.43;98820.48;1758783;78;21063;-63
2022/07/18 10:55:19;;;;;;;5.35;1.20;;;;;;;19.39;50.73;98815.94;1762661;78;21118;-63
2022/07/18 10:57:54;;;;;;;3.33;1.00;;;;;;;19.42;51.15;98816.65;1770656;78;21122;-60
2022/07/18 11:00:37;;;;;;;2.65;1.37;;;;;;;19.62;51.10;98807.73;1771847;77;21187;-60
2022/07/18 11:03:12;;;;;;;3.00;1.10;;;;;;;19.92;51.36;98798.43;1738451;78;21011;-60
2022/07/18 11:05:53;;;;;;;3.80;1.20;;;;;;;20.23;51.49;98799.41;1779418;78;20958;-61
2022/07/18 11:08:24;;;;;;;3.67;1.15;;;;;;;20.39;50.85;98799.02;1752663;78;21089;-61
2022/07/18 11:11:01;;;;;;;4.53;1.40;;;;;;;20.37;48.61;98791.75;1771492;77;21518;-61
2022/07/18 11:13:32;;;;;;;9.33;1.30;;;;;;;20.27;48.87;98790.24;1785564;77;21194;-62
2022/07/18 11:16:23;;;;;;;5.50;1.20;;;;;;;20.25;49.16;98784.91;1767082;77;21532;-61
2022/07/18 11:18:56;;;;;;;3.33;1.40;;;;;;;20.25;48.69;98782.98;1766253;77;21128;-62
2022/07/18 11:21:32;;;;;;;2.27;1.30;;;;;;;20.35;49.22;98785.27;1777778;77;21077;-60
2022/07/18 11:24:14;;;;;;;4.00;1.62;;;;;;;20.59;48.60;98781.02;1767631;77;21091;-60
2022/07/18 11:26:46;;;;;;;8.57;1.50;;;;;;;20.66;48.26;98777.19;1773234;77;21689;-61
2022/07/18 11:29:17;;;;;;;2.08;1.07;;;;;;;20.77;48.35;98775.08;1760515;78;22192;-61
2022/07/18 11:31:57;;;;;;;2.22;1.10;;;;;;;21.01;48.51;98766.92;1778050;77;21160;-61
2022/07/18 11:34:24;;;;;;;4.50;1.25;;;;;;;21.35;47.91;98759.46;1777538;77;21055;-61
2022/07/18 11:36:51;;;;;;;5.92;1.35;;;;;;;21.78;46.87;98760.42;1768974;77;20971;-61
2022/07/18 11:39:30;;;;;;;7.95;4.22;;;;;;;21.95;45.54;98754.49;1765564;78;21189;-61
2022/07/18 11:41:58;;;;;;;4.17;1.82;;;;;;;21.98;45.39;98748.33;1786142;78;21058;-61